createdAt,value
2023-03-29T00:01:01.419Z,101395.34
2023-03-29T00:03:34.193Z,101402.25
2023-03-29T00:06:03.991Z,101404.09
2023-03-29T00:08:34.081Z,101395.47
2023-03-29T00:11:02.608Z,101388.72
2023-03-29T00:13:31.179Z,101381.78
2023-03-29T00:15:59.325Z,101372.16
2023-03-29T00:18:28.282Z,101367.88
2023-03-29T00:20:59.849Z,101365.25
2023-03-29T00:23:29.634Z,101358.28
2023-03-29T00:25:58.923Z,101366.91
2023-03-29T00:28:29.474Z,101352.34
2023-03-29T00:31:06.429Z,101346.13
2023-03-29T00:33:34.755Z,101367.81
2023-03-29T00:36:05.094Z,101353.94
2023-03-29T00:38:33.740Z,101352.91
2023-03-29T00:41:02.692Z,101337.31
2023-03-29T00:43:31.114Z,101348.97
2023-03-29T00:45:59.784Z,101330.69
2023-03-29T00:48:30.276Z,101333.41
2023-03-29T00:51:07.017Z,101331.63
2023-03-29T00:53:39.419Z,101340.44
2023-03-29T00:56:12.171Z,101330.75
2023-03-29T00:58:45.914Z,101328.28
2023-03-29T01:01:19.687Z,101324.78
2023-03-29T01:03:54.580Z,101314.28
2023-03-29T01:06:29.899Z,101317.81
2023-03-29T01:09:04.390Z,101279.91
2023-03-29T01:11:37.036Z,101305.56
2023-03-29T01:14:08.260Z,101306.19
2023-03-29T01:16:39.099Z,101299.91
2023-03-29T01:19:10.478Z,101296.63
2023-03-29T01:21:44.438Z,101294.94
2023-03-29T01:24:41.982Z,101291.59
2023-03-29T01:27:16.036Z,101286.81
2023-03-29T01:29:50.188Z,101274.72
2023-03-29T01:32:22.498Z,101275.81
2023-03-29T01:34:58.676Z,101277.38
2023-03-29T01:37:33.183Z,101274.00
2023-03-29T01:40:02.352Z,101268.88
2023-03-29T01:42:44.070Z,101273.97
2023-03-29T01:45:24.366Z,101261.44
2023-03-29T01:48:00.384Z,101252.84
2023-03-29T01:50:38.139Z,101244.16
2023-03-29T01:53:10.759Z,101249.31
2023-03-29T01:55:42.731Z,101239.75
2023-03-29T01:58:14.306Z,101241.47
2023-03-29T02:00:45.310Z,101232.78
2023-03-29T02:03:17.674Z,101219.75
2023-03-29T02:05:47.278Z,101219.53
2023-03-29T02:08:19.001Z,101219.53
2023-03-29T02:10:47.793Z,101212.25
2023-03-29T02:13:16.093Z,101210.72
2023-03-29T02:15:47.091Z,101199.34
2023-03-29T02:18:17.830Z,101204.63
2023-03-29T02:20:50.380Z,101198.41
2023-03-29T02:23:23.504Z,101196.78
2023-03-29T02:25:54.177Z,101194.91
2023-03-29T02:28:24.461Z,101191.59
2023-03-29T02:30:59.900Z,101184.56
2023-03-29T02:33:36.194Z,101189.81
2023-03-29T02:36:10.435Z,101182.75
2023-03-29T02:38:39.823Z,101171.56
2023-03-29T02:41:09.549Z,101166.13
2023-03-29T02:43:39.598Z,101170.66
2023-03-29T02:46:11.086Z,101168.94
2023-03-29T02:48:40.057Z,101163.56
2023-03-29T02:51:18.022Z,101145.22
2023-03-29T02:53:53.382Z,101152.72
2023-03-29T02:56:22.246Z,101139.81
2023-03-29T02:58:50.336Z,101140.56
2023-03-29T03:01:23.038Z,101152.72
2023-03-29T03:03:52.219Z,101152.72
2023-03-29T03:06:21.352Z,101150.78
2023-03-29T03:08:49.825Z,101156.13
2023-03-29T03:11:21.480Z,101148.47
2023-03-29T03:13:49.653Z,101149.09
2023-03-29T03:16:19.244Z,101151.66
2023-03-29T03:18:48.997Z,101133.44
2023-03-29T03:21:17.890Z,101138.91
2023-03-29T03:23:46.580Z,101135.13
2023-03-29T03:26:16.088Z,101133.56
2023-03-29T03:28:44.203Z,101130.00
2023-03-29T03:31:13.952Z,101127.66
2023-03-29T03:33:43.762Z,101129.09
2023-03-29T03:36:12.841Z,101122.97
2023-03-29T03:38:41.352Z,101105.22
2023-03-29T03:41:09.693Z,101119.25
2023-03-29T03:43:38.029Z,101106.31
2023-03-29T03:46:08.649Z,101110.88
2023-03-29T03:48:37.481Z,101102.03
2023-03-29T03:51:07.593Z,101105.44
2023-03-29T03:53:35.780Z,101095.84
2023-03-29T03:56:09.059Z,101107.25
2023-03-29T03:58:37.448Z,101095.09
2023-03-29T04:01:08.649Z,101100.53
2023-03-29T04:03:37.988Z,101094.25
2023-03-29T04:06:08.041Z,101096.97
2023-03-29T04:08:36.558Z,101072.34
2023-03-29T04:11:05.249Z,101088.22
2023-03-29T04:13:33.620Z,101088.03
2023-03-29T04:16:02.022Z,101084.44
2023-03-29T04:18:30.525Z,101088.75
2023-03-29T04:20:58.964Z,101082.66
2023-03-29T04:23:28.633Z,101086.22
2023-03-29T04:25:57.586Z,101077.47
2023-03-29T04:28:25.885Z,101082.94
2023-03-29T04:30:54.047Z,101072.28
2023-03-29T04:33:22.793Z,101069.63
2023-03-29T04:35:52.274Z,101056.66
2023-03-29T04:38:23.564Z,101061.94
2023-03-29T04:40:54.992Z,101056.69
2023-03-29T04:43:23.968Z,101050.72
2023-03-29T04:45:52.158Z,101053.25
2023-03-29T04:48:20.816Z,101056.00
2023-03-29T04:50:49.026Z,101018.16
2023-03-29T04:53:17.227Z,101053.28
2023-03-29T04:55:47.959Z,101046.28
2023-03-29T04:58:18.985Z,101043.66
2023-03-29T05:00:48.599Z,101051.69
2023-03-29T05:03:16.890Z,101041.16
2023-03-29T05:05:45.348Z,101036.81
2023-03-29T05:08:13.749Z,101035.97
2023-03-29T05:10:43.774Z,101031.59
2023-03-29T05:13:12.458Z,101037.69
2023-03-29T05:15:43.981Z,101029.81
2023-03-29T05:18:12.211Z,101032.38
2023-03-29T05:20:40.604Z,101009.84
2023-03-29T05:23:08.938Z,101019.44
2023-03-29T05:25:37.133Z,101016.91
2023-03-29T05:28:05.624Z,101022.34
2023-03-29T05:30:34.297Z,101017.06
2023-03-29T05:33:05.811Z,101011.78
2023-03-29T05:35:36.069Z,101004.84
2023-03-29T05:38:04.794Z,101018.88
2023-03-29T05:40:33.776Z,101015.28
2023-03-29T05:43:02.864Z,101012.66
2023-03-29T05:45:32.590Z,101017.13
2023-03-29T05:48:00.812Z,101020.56
2023-03-29T05:50:30.521Z,101014.41
2023-03-29T05:52:59.103Z,100998.69
2023-03-29T05:55:27.400Z,101003.03
2023-03-29T05:57:56.004Z,101003.03
2023-03-29T06:00:24.481Z,101001.28
2023-03-29T06:02:53.866Z,100999.50
2023-03-29T06:05:22.341Z,101003.81
2023-03-29T06:07:52.086Z,100995.94
2023-03-29T06:10:20.384Z,100988.94
2023-03-29T06:12:49.675Z,100996.06
2023-03-29T06:15:18.306Z,100996.09
2023-03-29T06:17:47.454Z,100987.41
2023-03-29T06:20:17.345Z,100985.69
2023-03-29T06:22:46.878Z,100995.25
2023-03-29T06:25:17.817Z,100990.06
2023-03-29T06:27:47.844Z,100986.53
2023-03-29T06:30:17.032Z,100990.75
2023-03-29T06:32:45.257Z,100987.22
2023-03-29T06:35:13.574Z,100978.66
2023-03-29T06:37:49.531Z,100985.78
2023-03-29T06:40:21.488Z,100991.84
2023-03-29T06:42:51.131Z,100965.34
2023-03-29T06:45:22.436Z,100976.03
2023-03-29T06:47:52.223Z,100973.41
2023-03-29T06:50:20.736Z,100966.44
2023-03-29T06:52:49.286Z,100974.34
2023-03-29T06:55:19.514Z,100970.03
2023-03-29T06:57:48.065Z,100976.16
2023-03-29T07:00:19.081Z,100982.16
2023-03-29T07:02:48.037Z,100967.16
2023-03-29T07:05:16.824Z,100969.88
2023-03-29T07:07:56.823Z,100976.06
2023-03-29T07:10:32.232Z,100976.97
2023-03-29T07:13:01.099Z,100968.25
2023-03-29T07:15:30.052Z,100978.81
2023-03-29T07:18:02.381Z,100982.16
2023-03-29T07:20:30.821Z,100974.78
2023-03-29T07:23:02.299Z,100972.28
2023-03-29T07:25:34.196Z,100969.78
2023-03-29T07:28:02.519Z,100973.28
2023-03-29T07:30:32.707Z,100971.69
2023-03-29T07:33:01.275Z,100974.25
2023-03-29T07:35:30.870Z,100983.06
2023-03-29T07:37:59.709Z,100971.66
2023-03-29T07:40:28.389Z,100970.00
2023-03-29T07:42:58.899Z,100967.44
2023-03-29T07:45:29.155Z,100972.75
2023-03-29T07:48:00.159Z,100982.28
2023-03-29T07:50:29.325Z,100978.78
2023-03-29T07:52:57.963Z,100977.03
2023-03-29T07:55:26.585Z,100981.41
2023-03-29T07:57:54.919Z,100976.13
2023-03-29T08:00:25.087Z,100977.88
2023-03-29T08:02:54.323Z,100978.78
2023-03-29T08:05:37.557Z,100977.09
2023-03-29T08:08:09.889Z,100973.59
2023-03-29T08:10:39.553Z,100970.03
2023-03-29T08:13:10.590Z,100971.78
2023-03-29T08:15:45.478Z,100972.69
2023-03-29T08:18:16.257Z,100964.84
2023-03-29T08:20:48.113Z,100950.75
2023-03-29T08:23:17.524Z,100968.34
2023-03-29T08:25:47.489Z,100957.91
2023-03-29T08:28:20.217Z,100964.81
2023-03-29T08:30:53.348Z,100964.94
2023-03-29T08:33:23.226Z,100960.59
2023-03-29T08:35:51.813Z,100970.25
2023-03-29T08:38:19.998Z,100956.28
2023-03-29T08:40:51.338Z,100954.50
2023-03-29T08:43:39.366Z,100952.72
2023-03-29T08:46:20.764Z,100947.44
2023-03-29T08:48:54.112Z,100957.97
2023-03-29T08:51:28.371Z,100952.78
2023-03-29T08:54:01.663Z,100959.84
2023-03-29T08:56:34.110Z,100952.91
2023-03-29T08:59:03.424Z,100952.75
2023-03-29T09:01:36.432Z,100951.09
2023-03-29T09:04:10.028Z,100951.13
2023-03-29T09:06:41.400Z,100946.00
2023-03-29T09:09:17.191Z,100947.78
2023-03-29T09:12:08.762Z,100949.47
2023-03-29T09:14:53.265Z,100946.81
2023-03-29T09:17:36.310Z,100947.81
2023-03-29T09:20:21.042Z,100946.03
2023-03-29T09:22:59.290Z,100947.81
2023-03-29T09:25:40.961Z,100953.06
2023-03-29T09:28:21.269Z,100947.84
2023-03-29T09:30:57.050Z,100930.41
2023-03-29T09:33:30.279Z,100936.59
2023-03-29T09:36:04.374Z,100940.91
2023-03-29T09:38:33.968Z,100930.41
2023-03-29T09:41:10.458Z,100944.41
2023-03-29T09:43:44.368Z,100946.13
2023-03-29T09:46:23.817Z,100948.72
2023-03-29T09:48:56.259Z,100949.63
2023-03-29T09:51:28.249Z,100944.34
2023-03-29T09:53:57.414Z,100947.91
2023-03-29T09:56:27.071Z,100947.94
2023-03-29T09:58:55.530Z,100942.69
2023-03-29T10:01:23.859Z,100953.25
2023-03-29T10:03:54.768Z,100947.09
2023-03-29T10:06:26.885Z,100943.63
2023-03-29T10:08:59.058Z,100949.75
2023-03-29T10:11:33.027Z,100919.06
2023-03-29T10:14:04.205Z,100953.28
2023-03-29T10:16:36.206Z,100949.75
2023-03-29T10:19:24.215Z,100921.72
2023-03-29T10:21:53.170Z,100957.69
2023-03-29T10:24:22.533Z,100926.13
2023-03-29T10:26:55.764Z,100951.56
2023-03-29T10:29:25.480Z,100945.44
2023-03-29T10:31:54.176Z,100918.22
2023-03-29T10:34:30.287Z,100949.75
2023-03-29T10:37:01.142Z,100962.88
2023-03-29T10:39:34.374Z,100947.97
2023-03-29T10:42:05.447Z,100972.38
2023-03-29T10:44:36.353Z,100963.66
2023-03-29T10:47:16.357Z,100957.59
2023-03-29T10:49:48.466Z,100955.84
2023-03-29T10:52:18.739Z,100954.16
2023-03-29T10:54:48.466Z,100961.16
2023-03-29T10:57:23.876Z,100972.53
2023-03-29T11:00:00.531Z,100965.53
2023-03-29T11:03:08.898Z,100967.34
2023-03-29T11:05:44.546Z,100961.13
2023-03-29T11:08:29.784Z,100963.72
2023-03-29T11:11:09.923Z,100947.91
2023-03-29T11:13:47.773Z,100960.16
2023-03-29T11:16:26.838Z,100965.34
2023-03-29T11:19:22.050Z,100963.59
2023-03-29T11:21:57.343Z,100960.97
2023-03-29T11:24:46.901Z,100960.91
2023-03-29T11:27:27.520Z,100964.50
2023-03-29T11:30:09.311Z,100965.31
2023-03-29T11:32:48.548Z,100966.16
2023-03-29T11:35:37.707Z,100966.13
2023-03-29T11:38:20.934Z,100960.81
2023-03-29T11:40:58.093Z,100953.03
2023-03-29T11:43:30.476Z,100954.84
2023-03-29T11:46:04.154Z,100947.88
2023-03-29T11:48:37.360Z,100950.56
2023-03-29T11:51:12.540Z,100940.94
2023-03-29T11:53:50.292Z,100944.41
2023-03-29T11:56:26.698Z,100928.63
2023-03-29T11:59:01.946Z,100967.13
2023-03-29T12:01:35.344Z,100956.66
2023-03-29T12:04:08.861Z,100963.66
2023-03-29T12:06:44.809Z,100965.47
2023-03-29T12:09:26.642Z,100954.94
2023-03-29T12:12:04.634Z,100959.34
2023-03-29T12:14:43.829Z,100966.31
2023-03-29T12:17:16.675Z,100965.47
2023-03-29T12:19:50.410Z,100949.69
2023-03-29T12:22:19.928Z,100980.25
2023-03-29T12:24:53.246Z,100974.94
2023-03-29T12:27:27.796Z,100977.56
2023-03-29T12:30:25.272Z,100970.66
2023-03-29T12:33:34.070Z,100962.75
2023-03-29T12:36:17.791Z,100965.34
2023-03-29T12:38:48.762Z,100960.19
2023-03-29T12:41:21.778Z,100964.66
2023-03-29T12:43:51.261Z,100968.19
2023-03-29T12:46:22.728Z,100976.81
2023-03-29T12:48:55.935Z,100983.72
2023-03-29T12:51:30.852Z,100975.91
2023-03-29T12:54:08.670Z,100968.91
2023-03-29T12:56:42.807Z,100971.53
2023-03-29T12:59:27.275Z,100967.16
2023-03-29T13:02:04.350Z,100974.19
2023-03-29T13:04:41.963Z,100972.44
2023-03-29T13:07:16.872Z,100967.09
2023-03-29T13:09:54.404Z,100963.59
2023-03-29T13:12:32.957Z,100973.22
2023-03-29T13:15:03.488Z,100977.59
2023-03-29T13:17:45.151Z,100977.63
2023-03-29T13:20:25.894Z,100975.75
2023-03-29T13:23:08.377Z,100978.47
2023-03-29T13:25:50.578Z,100979.34
2023-03-29T13:28:29.857Z,100981.09
2023-03-29T13:31:01.317Z,100974.16
2023-03-29T13:33:58.937Z,100973.28
2023-03-29T13:36:41.390Z,100977.63
2023-03-29T13:39:20.622Z,100979.34
2023-03-29T13:41:51.248Z,100978.53
2023-03-29T13:44:27.712Z,100982.88
2023-03-29T13:47:17.617Z,100977.56
2023-03-29T13:49:52.451Z,100967.97
2023-03-29T13:52:25.826Z,100981.09
2023-03-29T13:54:59.554Z,100992.44
2023-03-29T13:57:35.212Z,100988.00
2023-03-29T14:00:17.901Z,100988.69
2023-03-29T14:02:54.148Z,100991.28
2023-03-29T14:05:26.717Z,101006.81
2023-03-29T14:07:56.077Z,100997.81
2023-03-29T14:10:28.381Z,101008.47
2023-03-29T14:12:57.717Z,101002.38
2023-03-29T14:15:39.721Z,101000.66
2023-03-29T14:18:13.263Z,100999.81
2023-03-29T14:20:45.701Z,101010.41
2023-03-29T14:23:20.619Z,100996.34
2023-03-29T14:25:51.521Z,100994.66
2023-03-29T14:28:22.419Z,100999.91
2023-03-29T14:30:52.881Z,100999.94
2023-03-29T14:33:34.527Z,100998.19
2023-03-29T14:36:05.300Z,101006.78
2023-03-29T14:38:34.188Z,101010.19
2023-03-29T14:41:03.961Z,101009.84
2023-03-29T14:43:33.002Z,101016.06
2023-03-29T14:46:06.398Z,101027.25
2023-03-29T14:48:35.798Z,100995.34
2023-03-29T14:51:05.196Z,101014.56
2023-03-29T14:53:34.595Z,101035.97
2023-03-29T14:56:03.511Z,101031.72
2023-03-29T14:58:35.308Z,101029.81
2023-03-29T15:01:14.806Z,101035.84
2023-03-29T15:03:51.710Z,101038.28
2023-03-29T15:06:21.837Z,101038.13
2023-03-29T15:09:03.765Z,101034.84
2023-03-29T15:11:34.775Z,101039.78
2023-03-29T15:14:05.623Z,101042.09
2023-03-29T15:16:38.574Z,101050.25
2023-03-29T15:19:07.146Z,101044.59
2023-03-29T15:21:36.741Z,101042.09
2023-03-29T15:24:06.482Z,101037.88
2023-03-29T15:26:36.717Z,101050.63
2023-03-29T15:29:09.159Z,101035.78
2023-03-29T15:31:41.420Z,101034.06
2023-03-29T15:34:12.718Z,101039.41
2023-03-29T15:36:43.411Z,101050.69
2023-03-29T15:39:14.048Z,101051.31
2023-03-29T15:41:42.816Z,101056.09
2023-03-29T15:44:12.035Z,101050.84
2023-03-29T15:46:42.016Z,101049.25
2023-03-29T15:49:12.504Z,101010.34
2023-03-29T15:51:41.522Z,101045.56
2023-03-29T15:54:09.777Z,101048.09
2023-03-29T15:56:47.232Z,101045.69
2023-03-29T15:59:15.645Z,101056.13
2023-03-29T16:01:46.872Z,101069.50
2023-03-29T16:04:17.059Z,101068.69
2023-03-29T16:06:48.720Z,101071.22
2023-03-29T16:09:17.254Z,101077.34
2023-03-29T16:11:47.300Z,101082.41
2023-03-29T16:14:21.594Z,101086.59
2023-03-29T16:16:51.448Z,101082.25
2023-03-29T16:19:20.112Z,101085.84
2023-03-29T16:21:48.572Z,101069.22
2023-03-29T16:24:19.646Z,101077.19
2023-03-29T16:26:48.592Z,101075.50
2023-03-29T16:29:17.467Z,101078.81
2023-03-29T16:31:46.732Z,101078.09
2023-03-29T16:34:18.881Z,101083.91
2023-03-29T16:36:47.899Z,101079.72
2023-03-29T16:39:17.474Z,101069.34
2023-03-29T16:41:48.523Z,101069.22
2023-03-29T16:44:21.659Z,101067.94
2023-03-29T16:46:52.825Z,101076.75
2023-03-29T16:49:22.522Z,101074.88
2023-03-29T16:51:50.613Z,101086.69
2023-03-29T16:54:19.198Z,101093.16
2023-03-29T16:56:48.010Z,101056.53
2023-03-29T16:59:19.331Z,101087.72
2023-03-29T17:01:47.626Z,101091.53
2023-03-29T17:04:16.086Z,101100.06
2023-03-29T17:06:45.696Z,101096.00
2023-03-29T17:09:14.044Z,101101.97
2023-03-29T17:11:42.325Z,101092.50
2023-03-29T17:14:13.471Z,101105.91
2023-03-29T17:16:41.831Z,101101.44
2023-03-29T17:19:10.133Z,101105.00
2023-03-29T17:21:38.395Z,101108.41
2023-03-29T17:24:09.888Z,101115.59
2023-03-29T17:26:40.001Z,101101.97
2023-03-29T17:29:08.340Z,101106.00
2023-03-29T17:31:36.675Z,101117.13
2023-03-29T17:34:05.018Z,101115.31
2023-03-29T17:36:33.976Z,101115.59
2023-03-29T17:39:02.906Z,101115.44
2023-03-29T17:41:36.827Z,101120.53
2023-03-29T17:44:07.375Z,101121.03
2023-03-29T17:46:37.922Z,101129.44
2023-03-29T17:49:06.580Z,101120.88
2023-03-29T17:51:34.768Z,101121.09
2023-03-29T17:54:04.095Z,101121.78
2023-03-29T17:56:34.232Z,101118.84
2023-03-29T17:59:02.544Z,101117.03
2023-03-29T18:01:31.060Z,101118.91
2023-03-29T18:03:59.497Z,101121.19
2023-03-29T18:06:28.745Z,101119.47
2023-03-29T18:09:01.704Z,101124.78
2023-03-29T18:11:32.635Z,101118.50
2023-03-29T18:14:02.464Z,101130.63
2023-03-29T18:16:30.881Z,101125.13
2023-03-29T18:18:59.070Z,101133.94
2023-03-29T18:21:27.975Z,101143.59
2023-03-29T18:23:57.096Z,101136.38
2023-03-29T18:26:25.944Z,101129.91
2023-03-29T18:28:55.596Z,101137.47
2023-03-29T18:31:25.562Z,101128.19
2023-03-29T18:33:54.142Z,101131.97
2023-03-29T18:36:22.854Z,101139.84
2023-03-29T18:38:53.745Z,101134.69
2023-03-29T18:41:21.938Z,101138.56
2023-03-29T18:43:50.880Z,101147.00
2023-03-29T18:46:19.421Z,101144.13
2023-03-29T18:48:49.682Z,101149.72
2023-03-29T18:51:18.097Z,101154.19
2023-03-29T18:53:46.375Z,101152.75
2023-03-29T18:56:14.677Z,101148.06
2023-03-29T18:58:42.980Z,101150.09
2023-03-29T19:01:13.052Z,101153.25
2023-03-29T19:03:42.068Z,101153.97
2023-03-29T19:06:12.020Z,101152.94
2023-03-29T19:08:41.561Z,101164.31
2023-03-29T19:11:11.517Z,101155.56
2023-03-29T19:13:39.866Z,101147.31
2023-03-29T19:16:08.802Z,101152.84
2023-03-29T19:18:40.323Z,101153.88
2023-03-29T19:21:08.442Z,101155.56
2023-03-29T19:23:38.537Z,101166.00
2023-03-29T19:26:07.439Z,101160.69
2023-03-29T19:28:36.893Z,101155.84
2023-03-29T19:31:05.981Z,101142.41
2023-03-29T19:33:36.898Z,101154.56
2023-03-29T19:36:09.007Z,101138.72
2023-03-29T19:38:38.753Z,101156.88
2023-03-29T19:41:11.736Z,101150.16
2023-03-29T19:43:40.001Z,101146.47
2023-03-29T19:46:10.629Z,101143.31
2023-03-29T19:48:39.567Z,101150.59
2023-03-29T19:51:08.869Z,101137.59
2023-03-29T19:53:39.154Z,101118.69
2023-03-29T19:56:07.906Z,101137.31
2023-03-29T19:58:36.493Z,101141.59
2023-03-29T20:01:05.004Z,101141.41
2023-03-29T20:03:34.331Z,101127.81
2023-03-29T20:06:03.154Z,101125.41
2023-03-29T20:08:31.347Z,101137.59
2023-03-29T20:11:04.103Z,101144.44
2023-03-29T20:13:38.840Z,101141.41
2023-03-29T20:16:08.604Z,101146.31
2023-03-29T20:18:38.593Z,101144.22
2023-03-29T20:21:06.969Z,101140.31
2023-03-29T20:23:35.608Z,101141.63
2023-03-29T20:26:05.271Z,101145.44
2023-03-29T20:28:33.392Z,101140.19
2023-03-29T20:31:05.661Z,101139.03
2023-03-29T20:33:34.338Z,101130.06
2023-03-29T20:36:02.651Z,101127.09
2023-03-29T20:38:31.538Z,101130.81
2023-03-29T20:40:59.969Z,101128.56
2023-03-29T20:43:38.017Z,101117.75
2023-03-29T20:46:14.796Z,101121.66
2023-03-29T20:48:46.173Z,101112.41
2023-03-29T20:51:14.593Z,101106.75
2023-03-29T20:53:46.706Z,101101.91
2023-03-29T20:56:15.637Z,101103.69
2023-03-29T20:58:46.057Z,101105.06
2023-03-29T21:01:14.793Z,101095.16
2023-03-29T21:03:43.473Z,101098.03
2023-03-29T21:06:14.108Z,101093.63
2023-03-29T21:08:42.652Z,101100.09
2023-03-29T21:11:13.193Z,101087.88
2023-03-29T21:13:44.618Z,101070.63
2023-03-29T21:16:14.572Z,101077.91
2023-03-29T21:18:43.483Z,101084.66
2023-03-29T21:21:12.873Z,101077.75
2023-03-29T21:23:41.526Z,101084.38
2023-03-29T21:26:09.786Z,101075.47
2023-03-29T21:28:37.914Z,101066.38
2023-03-29T21:31:06.832Z,101066.38
2023-03-29T21:33:37.042Z,101066.59
2023-03-29T21:36:05.751Z,101074.16
2023-03-29T21:38:34.100Z,101080.91
2023-03-29T21:41:02.826Z,101074.88
2023-03-29T21:43:31.416Z,101071.78
2023-03-29T21:45:59.672Z,101074.59
2023-03-29T21:48:28.131Z,101065.25
2023-03-29T21:50:57.839Z,101067.63
2023-03-29T21:53:27.232Z,101069.81
2023-03-29T21:55:55.839Z,101063.47
2023-03-29T21:58:23.995Z,101074.66
2023-03-29T22:00:52.517Z,101061.06
2023-03-29T22:03:20.888Z,101066.53
2023-03-29T22:05:59.649Z,101066.88
2023-03-29T22:08:31.030Z,101066.97
2023-03-29T22:10:59.155Z,101065.63
2023-03-29T22:13:29.946Z,101065.13
2023-03-29T22:16:03.806Z,101045.69
2023-03-29T22:18:42.679Z,101053.81
2023-03-29T22:21:15.215Z,101051.69
2023-03-29T22:23:44.451Z,101052.94
2023-03-29T22:26:15.287Z,101056.44
2023-03-29T22:28:44.057Z,101051.41
2023-03-29T22:31:14.712Z,101049.69
2023-03-29T22:33:43.601Z,101051.84
2023-03-29T22:36:18.293Z,101045.66
2023-03-29T22:38:47.469Z,101048.44
2023-03-29T22:41:17.243Z,101037.25
2023-03-29T22:43:46.273Z,101044.06
2023-03-29T22:46:15.569Z,101033.94
2023-03-29T22:48:43.755Z,101036.94
2023-03-29T22:51:12.226Z,101045.81
2023-03-29T22:53:42.023Z,101038.88
2023-03-29T22:56:10.803Z,101033.84
2023-03-29T22:58:39.659Z,101030.09
2023-03-29T23:01:08.615Z,101031.88
2023-03-29T23:03:37.475Z,101030.34
2023-03-29T23:06:06.904Z,101024.88
2023-03-29T23:08:36.285Z,101010.88
2023-03-29T23:11:07.520Z,101005.97
2023-03-29T23:13:35.815Z,101010.44
2023-03-29T23:16:04.892Z,100999.25
2023-03-29T23:18:37.711Z,101001.44
2023-03-29T23:21:07.564Z,101004.75
2023-03-29T23:23:36.968Z,101007.19
2023-03-29T23:26:08.871Z,100995.41
2023-03-29T23:28:37.278Z,100994.53
2023-03-29T23:31:10.103Z,100993.25
2023-03-29T23:33:42.969Z,100997.56
2023-03-29T23:36:13.153Z,100991.06
2023-03-29T23:38:42.486Z,100984.97
2023-03-29T23:41:13.532Z,100980.03
2023-03-29T23:43:44.422Z,100999.75
2023-03-29T23:46:15.373Z,100992.69
2023-03-29T23:48:47.420Z,100983.63
2023-03-29T23:51:18.270Z,100981.84
2023-03-29T23:53:49.741Z,100981.56
2023-03-29T23:56:19.327Z,100976.63
2023-03-29T23:58:47.663Z,100978.56
